PWSweather.com
Personal Weather Stations
Station Observations
IESRVJEREZ
Ies Fco. Romero Vargas, Jerez De La FronteraES 11408

Ies Fco. Romero VargasJerez De La FronteraES 11408

Lat: 36.67203, Lon: -6.129915

Elevation: 98

Station Type: FWS 20

http://www.iesromerovargas.net/estacion_meteorologica/Cumulus/web/

High Low Average
Temperature 66.7°F19.3°F 58.1°F14.5°F 61.9°F16.6°F
Dew Point 56.8°F13.8°F 54.4°F12.4°F 55.6°F13.1°F
Winds 9.8 mph SE15.8 mph SE 0.7 mph 1.1 mph 5.4 mph 8.7 mph
Wind Gusts 17.4 mph28.0 mph 7.6 mph12.2 mph 12.0 mph19.3 mph
Humidity 94% 68% 80%
Pressure 29.99 in1015.60 in 29.89 in1012.20 in -
Precipitation 0.16 in4.10 in - -
Hour Temp Dew Point Humidity Winds Wind Gusts Pressure Precip Precip Rate Daily Precip Total
01:15 PM 65.5°F18.6°C 56.2°F13.4°C 72% 7.6 mph ESE12.2 kmh ESE 12.1 mph19.5 kmh 29.99 in1015.6 mb 0.00 in0.0 mm 0.00 in0.0 mm 0.00 in0.0 mm
01:30 PM 65.3°F18.5°C 56.1°F13.4°C 72% 7.6 mph SE12.2 kmh SE 12.1 mph19.5 kmh 29.99 in1015.6 mb 0.00 in0.0 mm 0.00 in0.0 mm 0.00 in0.0 mm
01:45 PM 65.1°F18.4°C 56.3°F13.5°C 73% 6.0 mph SSE9.7 kmh SSE 12.1 mph19.5 kmh 29.98 in1015.2 mb 0.00 in0.0 mm 0.00 in0.0 mm 0.00 in0.0 mm
02:00 PM 65.7°F18.7°C 56.4°F13.6°C 72% 3.8 mph SE6.1 kmh SE 13.0 mph20.9 kmh 29.97 in1014.9 mb 0.00 in0.0 mm 0.00 in0.0 mm 0.00 in0.0 mm
02:15 PM 66.0°F18.9°C 56.0°F13.3°C 70% 5.4 mph SE8.7 kmh SE 13.6 mph21.9 kmh 29.96 in1014.6 mb 0.00 in0.0 mm 0.00 in0.0 mm 0.00 in0.0 mm
02:30 PM 66.2°F19.0°C 55.8°F13.2°C 69% 9.8 mph SE15.8 kmh SE 13.6 mph21.9 kmh 29.96 in1014.6 mb 0.00 in0.0 mm 0.00 in0.0 mm 0.00 in0.0 mm
02:45 PM 66.4°F19.1°C 55.9°F13.3°C 69% 6.9 mph SE11.1 kmh SE 17.4 mph28.0 kmh 29.95 in1014.2 mb 0.00 in0.0 mm 0.00 in0.0 mm 0.00 in0.0 mm
03:00 PM 66.0°F18.9°C 55.6°F13.1°C 69% 4.5 mph SE7.2 kmh SE 16.8 mph27.0 kmh 29.94 in1013.9 mb 0.00 in0.0 mm 0.00 in0.0 mm 0.00 in0.0 mm
03:15 PM 65.7°F18.7°C 55.6°F13.1°C 70% 7.6 mph SSE12.2 kmh SSE 16.8 mph27.0 kmh 29.93 in1013.5 mb 0.00 in0.0 mm 0.00 in0.0 mm 0.00 in0.0 mm
03:30 PM 66.7°F19.3°C 55.9°F13.3°C 68% 6.0 mph SSE9.7 kmh SSE 15.2 mph24.5 kmh 29.93 in1013.5 mb 0.00 in0.0 mm 0.00 in0.0 mm 0.00 in0.0 mm
03:45 PM 65.7°F18.7°C 55.6°F13.1°C 70% 8.3 mph SE13.4 kmh SE 13.0 mph20.9 kmh 29.93 in1013.5 mb 0.00 in0.0 mm 0.00 in0.0 mm 0.00 in0.0 mm
04:00 PM 65.1°F18.4°C 56.3°F13.5°C 73% 9.2 mph SE14.8 kmh SE 13.6 mph21.9 kmh 29.92 in1013.2 mb 0.00 in0.0 mm 0.00 in0.0 mm 0.00 in0.0 mm
04:15 PM 64.8°F18.2°C 55.5°F13.1°C 72% 9.2 mph SSE14.8 kmh SSE 14.5 mph23.3 kmh 29.93 in1013.5 mb 0.00 in0.0 mm 0.00 in0.0 mm 0.00 in0.0 mm
04:30 PM 64.6°F18.1°C 55.7°F13.2°C 73% 3.1 mph S5.0 kmh S 9.8 mph15.8 kmh 29.94 in1013.9 mb 0.00 in0.0 mm 0.00 in0.0 mm 0.00 in0.0 mm
04:45 PM 63.9°F17.7°C 55.8°F13.2°C 75% 2.2 mph SE3.5 kmh SE 11.4 mph18.3 kmh 29.93 in1013.5 mb 0.00 in0.0 mm 0.00 in0.0 mm 0.00 in0.0 mm
05:00 PM 63.1°F17.3°C 54.7°F12.6°C 74% 6.9 mph SE11.1 kmh SE 10.7 mph17.2 kmh 29.93 in1013.5 mb 0.00 in0.0 mm 0.00 in0.0 mm 0.00 in0.0 mm
05:15 PM 63.0°F17.2°C 54.6°F12.6°C 74% 4.5 mph S7.2 kmh S 10.7 mph17.2 kmh 29.94 in1013.9 mb 0.00 in0.0 mm 0.00 in0.0 mm 0.00 in0.0 mm
05:30 PM 62.4°F16.9°C 54.8°F12.7°C 76% 7.6 mph SE12.2 kmh SE 9.2 mph14.8 kmh 29.94 in1013.9 mb 0.00 in0.0 mm 0.00 in0.0 mm 0.00 in0.0 mm
05:45 PM 62.2°F16.8°C 54.6°F12.6°C 76% 5.4 mph SSE8.7 kmh SSE 12.1 mph19.5 kmh 29.94 in1013.9 mb 0.00 in0.0 mm 0.00 in0.0 mm 0.00 in0.0 mm
06:00 PM 61.9°F16.6°C 54.6°F12.6°C 77% 3.1 mph SSE5.0 kmh SSE 10.7 mph17.2 kmh 29.93 in1013.5 mb 0.00 in0.0 mm 0.00 in0.0 mm 0.00 in0.0 mm
06:15 PM 61.7°F16.5°C 54.8°F12.7°C 78% 5.4 mph SE8.7 kmh SE 10.7 mph17.2 kmh 29.94 in1013.9 mb 0.00 in0.0 mm 0.00 in0.0 mm 0.00 in0.0 mm
06:30 PM 61.3°F16.3°C 54.8°F12.7°C 79% 8.3 mph SE13.4 kmh SE 10.7 mph17.2 kmh 29.93 in1013.5 mb 0.00 in0.0 mm 0.00 in0.0 mm 0.00 in0.0 mm
06:45 PM 61.2°F16.2°C 54.6°F12.6°C 79% 4.5 mph SE7.2 kmh SE 10.7 mph17.2 kmh 29.94 in1013.9 mb 0.00 in0.0 mm 0.00 in0.0 mm 0.00 in0.0 mm
07:00 PM 61.0°F16.1°C 54.8°F12.7°C 80% 0.7 mph SE1.1 kmh SE 9.2 mph14.8 kmh 29.94 in1013.9 mb 0.00 in0.0 mm 0.00 in0.0 mm 0.00 in0.0 mm
07:15 PM 60.8°F16.0°C 54.6°F12.6°C 80% 6.0 mph SSE9.7 kmh SSE 10.7 mph17.2 kmh 29.94 in1013.9 mb 0.00 in0.0 mm 0.00 in0.0 mm 0.00 in0.0 mm
07:30 PM 60.3°F15.7°C 54.4°F12.4°C 81% 6.0 mph SSE9.7 kmh SSE 13.0 mph20.9 kmh 29.93 in1013.5 mb 0.00 in0.0 mm 0.00 in0.0 mm 0.00 in0.0 mm
07:45 PM 60.1°F15.6°C 54.6°F12.6°C 82% 3.1 mph SE5.0 kmh SE 10.7 mph17.2 kmh 29.93 in1013.5 mb 0.00 in0.0 mm 0.00 in0.0 mm 0.00 in0.0 mm
08:00 PM 59.9°F15.5°C 54.7°F12.6°C 83% 4.5 mph SE7.2 kmh SE 11.4 mph18.3 kmh 29.93 in1013.5 mb 0.00 in0.0 mm 0.00 in0.0 mm 0.00 in0.0 mm
08:15 PM 59.7°F15.4°C 55.2°F12.9°C 85% 2.2 mph SSE3.5 kmh SSE 7.6 mph12.2 kmh 29.92 in1013.2 mb 0.00 in0.0 mm 0.00 in0.0 mm 0.00 in0.0 mm
08:30 PM 59.7°F15.4°C 55.5°F13.1°C 86% 4.5 mph S7.2 kmh S 9.8 mph15.8 kmh 29.93 in1013.5 mb 0.00 in0.0 mm 0.00 in0.0 mm 0.00 in0.0 mm
08:45 PM 59.7°F15.4°C 56.2°F13.4°C 88% 3.8 mph SSE6.1 kmh SSE 9.8 mph15.8 kmh 29.92 in1013.2 mb 0.00 in0.0 mm 0.00 in0.0 mm 0.00 in0.0 mm
09:00 PM 58.8°F14.9°C 55.9°F13.3°C 90% 5.4 mph SSE8.7 kmh SSE 11.4 mph18.3 kmh 29.92 in1013.2 mb 0.00 in0.0 mm 0.00 in0.0 mm 0.00 in0.0 mm
09:15 PM 58.8°F14.9°C 55.9°F13.3°C 90% 4.5 mph SE7.2 kmh SE 12.1 mph19.5 kmh 29.92 in1013.2 mb 0.00 in0.0 mm 0.00 in0.0 mm 0.00 in0.0 mm
09:30 PM 58.8°F14.9°C 55.9°F13.3°C 90% 4.5 mph SSE7.2 kmh SSE 13.6 mph21.9 kmh 29.92 in1013.2 mb 0.00 in0.0 mm 0.00 in0.0 mm 0.00 in0.0 mm
09:45 PM 58.8°F14.9°C 56.2°F13.4°C 91% 4.5 mph SE7.2 kmh SE 13.0 mph20.9 kmh 29.92 in1013.2 mb 0.00 in0.0 mm 0.00 in0.0 mm 0.00 in0.0 mm
10:00 PM 58.8°F14.9°C 56.2°F13.4°C 91% 6.0 mph SE9.7 kmh SE 10.7 mph17.2 kmh 29.91 in1012.9 mb 0.00 in0.0 mm 0.00 in0.0 mm 0.00 in0.0 mm
10:15 PM 58.6°F14.8°C 56.3°F13.5°C 92% 6.9 mph SE11.1 kmh SE 15.2 mph24.5 kmh 29.92 in1013.2 mb 0.00 in0.0 mm 0.00 in0.0 mm 0.00 in0.0 mm
10:30 PM 58.6°F14.8°C 56.6°F13.7°C 93% 5.4 mph SE8.7 kmh SE 10.7 mph17.2 kmh 29.91 in1012.9 mb 0.00 in0.0 mm 0.00 in0.0 mm 0.00 in0.0 mm
10:45 PM 58.6°F14.8°C 56.6°F13.7°C 93% 3.8 mph SSE6.1 kmh SSE 11.4 mph18.3 kmh 29.91 in1012.9 mb 0.01 in0.3 mm 0.04 in1.0 mm 0.01 in0.3 mm
11:00 PM 58.5°F14.7°C 56.8°F13.8°C 94% 5.4 mph SSE8.7 kmh SSE 9.2 mph14.8 kmh 29.90 in1012.5 mb 0.02 in0.5 mm 0.01 in0.3 mm 0.02 in0.5 mm
11:15 PM 58.5°F14.7°C 56.8°F13.8°C 94% 6.0 mph SSE9.7 kmh SSE 16.8 mph27.0 kmh 29.90 in1012.5 mb 0.04 in1.0 mm 0.08 in2.0 mm 0.04 in1.0 mm
11:30 PM 58.1°F14.5°C 56.4°F13.6°C 94% 3.8 mph SSE6.1 kmh SSE 9.8 mph15.8 kmh 29.90 in1012.5 mb 0.05 in1.3 mm 0.04 in1.0 mm 0.05 in1.3 mm
11:45 PM 58.1°F14.5°C 56.4°F13.6°C 94% 2.2 mph SE3.5 kmh SE 11.4 mph18.3 kmh 29.89 in1012.2 mb 0.04 in1.0 mm 0.00 in0.0 mm 0.05 in1.3 mm